sensor_id;sensor_type;location;lat;lon;timestamp;pressure;altitude;pressure_sealevel;temperature;humidity
13080;BME280;6606;49.154;9.280;2023-01-10T00:02:22;99309.13;;;6.66;100.00
13080;BME280;6606;49.154;9.280;2023-01-10T00:05:06;99312.91;;;6.58;100.00
13080;BME280;6606;49.154;9.280;2023-01-10T00:07:48;99324.53;;;6.53;100.00
13080;BME280;6606;49.154;9.280;2023-01-10T00:10:30;99329.50;;;6.60;100.00
13080;BME280;6606;49.154;9.280;2023-01-10T00:13:13;99341.44;;;6.47;100.00
13080;BME280;6606;49.154;9.280;2023-01-10T00:16:07;99338.13;;;6.42;100.00
13080;BME280;6606;49.154;9.280;2023-01-10T00:18:49;99342.84;;;6.56;100.00
13080;BME280;6606;49.154;9.280;2023-01-10T00:21:32;99344.41;;;6.62;100.00
13080;BME280;6606;49.154;9.280;2023-01-10T00:24:14;99350.56;;;6.60;100.00
13080;BME280;6606;49.154;9.280;2023-01-10T00:26:59;99355.78;;;6.62;100.00
13080;BME280;6606;49.154;9.280;2023-01-10T00:29:42;99365.16;;;6.69;100.00
13080;BME280;6606;49.154;9.280;2023-01-10T00:32:24;99370.84;;;6.58;100.00
13080;BME280;6606;49.154;9.280;2023-01-10T00:35:06;99377.50;;;6.45;100.00
13080;BME280;6606;49.154;9.280;2023-01-10T00:37:50;99380.38;;;6.39;100.00
13080;BME280;6606;49.154;9.280;2023-01-10T00:40:37;99380.19;;;6.44;100.00
13080;BME280;6606;49.154;9.280;2023-01-10T00:43:18;99385.47;;;6.66;100.00
13080;BME280;6606;49.154;9.280;2023-01-10T00:46:17;99390.72;;;6.67;100.00
13080;BME280;6606;49.154;9.280;2023-01-10T00:48:59;99391.69;;;6.65;100.00
13080;BME280;6606;49.154;9.280;2023-01-10T00:51:47;99398.69;;;6.64;100.00
13080;BME280;6606;49.154;9.280;2023-01-10T00:54:30;99407.53;;;6.63;100.00
13080;BME280;6606;49.154;9.280;2023-01-10T00:57:12;99411.00;;;6.64;100.00
13080;BME280;6606;49.154;9.280;2023-01-10T00:59:54;99413.25;;;6.51;100.00
13080;BME280;6606;49.154;9.280;2023-01-10T01:02:35;99420.19;;;6.53;100.00
13080;BME280;6606;49.154;9.280;2023-01-10T01:05:17;99412.06;;;6.59;100.00
13080;BME280;6606;49.154;9.280;2023-01-10T01:07:59;99418.88;;;6.65;100.00
13080;BME280;6606;49.154;9.280;2023-01-10T01:10:43;99426.69;;;6.67;100.00
13080;BME280;6606;49.154;9.280;2023-01-10T01:13:24;99438.69;;;6.52;100.00
13080;BME280;6606;49.154;9.280;2023-01-10T01:16:06;99441.34;;;6.50;100.00
13080;BME280;6606;49.154;9.280;2023-01-10T01:18:48;99449.38;;;6.47;100.00
13080;BME280;6606;49.154;9.280;2023-01-10T01:21:30;99454.47;;;6.52;100.00
13080;BME280;6606;49.154;9.280;2023-01-10T01:24:11;99461.91;;;6.41;100.00
13080;BME280;6606;49.154;9.280;2023-01-10T01:26:54;99466.84;;;6.50;100.00
13080;BME280;6606;49.154;9.280;2023-01-10T01:29:36;99485.53;;;6.42;100.00
13080;BME280;6606;49.154;9.280;2023-01-10T01:32:18;99493.97;;;6.52;100.00
13080;BME280;6606;49.154;9.280;2023-01-10T01:35:01;99507.41;;;6.44;100.00
13080;BME280;6606;49.154;9.280;2023-01-10T01:37:43;99506.03;;;6.57;100.00
13080;BME280;6606;49.154;9.280;2023-01-10T01:40:25;99506.91;;;6.58;100.00
13080;BME280;6606;49.154;9.280;2023-01-10T01:43:22;99515.66;;;6.58;100.00
13080;BME280;6606;49.154;9.280;2023-01-10T01:46:04;99515.75;;;6.55;100.00
13080;BME280;6606;49.154;9.280;2023-01-10T01:48:46;99523.03;;;6.49;100.00
13080;BME280;6606;49.154;9.280;2023-01-10T01:51:29;99526.66;;;6.46;100.00
13080;BME280;6606;49.154;9.280;2023-01-10T01:54:12;99534.66;;;6.43;100.00
13080;BME280;6606;49.154;9.280;2023-01-10T01:56:57;99552.16;;;6.44;100.00
13080;BME280;6606;49.154;9.280;2023-01-10T01:59:44;99560.09;;;6.43;100.00
13080;BME280;6606;49.154;9.280;2023-01-10T02:02:30;99557.72;;;6.35;100.00
13080;BME280;6606;49.154;9.280;2023-01-10T02:05:15;99553.44;;;6.32;100.00
13080;BME280;6606;49.154;9.280;2023-01-10T02:07:58;99567.63;;;6.28;100.00
13080;BME280;6606;49.154;9.280;2023-01-10T02:10:45;99573.84;;;6.26;100.00
13080;BME280;6606;49.154;9.280;2023-01-10T02:13:32;99566.09;;;6.21;100.00
13080;BME280;6606;49.154;9.280;2023-01-10T02:16:19;99569.88;;;6.14;100.00
13080;BME280;6606;49.154;9.280;2023-01-10T02:19:01;99580.28;;;6.17;100.00
13080;BME280;6606;49.154;9.280;2023-01-10T02:22:08;99581.84;;;6.23;100.00
13080;BME280;6606;49.154;9.280;2023-01-10T02:28:47;99598.53;;;6.22;100.00
13080;BME280;6606;49.154;9.280;2023-01-10T02:31:56;99615.50;;;6.13;100.00
13080;BME280;6606;49.154;9.280;2023-01-10T02:34:53;99616.81;;;6.26;100.00
13080;BME280;6606;49.154;9.280;2023-01-10T02:37:44;99619.53;;;6.25;100.00
13080;BME280;6606;49.154;9.280;2023-01-10T02:40:35;99636.44;;;6.16;100.00
13080;BME280;6606;49.154;9.280;2023-01-10T02:43:23;99631.97;;;6.20;100.00
13080;BME280;6606;49.154;9.280;2023-01-10T02:46:10;99645.84;;;6.25;100.00
13080;BME280;6606;49.154;9.280;2023-01-10T02:48:56;99649.47;;;6.21;100.00
13080;BME280;6606;49.154;9.280;2023-01-10T02:51:38;99651.09;;;6.25;100.00
13080;BME280;6606;49.154;9.280;2023-01-10T02:54:23;99656.72;;;6.14;100.00
13080;BME280;6606;49.154;9.280;2023-01-10T02:57:24;99663.94;;;6.07;100.00
13080;BME280;6606;49.154;9.280;2023-01-10T03:00:33;99673.59;;;6.07;100.00
13080;BME280;6606;49.154;9.280;2023-01-10T03:03:32;99675.31;;;6.08;100.00
13080;BME280;6606;49.154;9.280;2023-01-10T03:06:22;99678.03;;;6.05;100.00
13080;BME280;6606;49.154;9.280;2023-01-10T03:09:15;99680.44;;;6.12;100.00
13080;BME280;6606;49.154;9.280;2023-01-10T03:12:08;99689.03;;;6.18;100.00
13080;BME280;6606;49.154;9.280;2023-01-10T03:14:53;99689.75;;;6.23;100.00
13080;BME280;6606;49.154;9.280;2023-01-10T03:17:36;99692.38;;;6.23;100.00
13080;BME280;6606;49.154;9.280;2023-01-10T03:20:20;99696.47;;;6.05;100.00
13080;BME280;6606;49.154;9.280;2023-01-10T03:23:05;99705.16;;;6.07;100.00
13080;BME280;6606;49.154;9.280;2023-01-10T03:25:49;99711.91;;;6.15;100.00
13080;BME280;6606;49.154;9.280;2023-01-10T03:28:36;99724.13;;;6.16;100.00
13080;BME280;6606;49.154;9.280;2023-01-10T03:31:23;99728.00;;;6.06;100.00
13080;BME280;6606;49.154;9.280;2023-01-10T03:34:06;99728.97;;;6.02;100.00
13080;BME280;6606;49.154;9.280;2023-01-10T03:36:52;99735.88;;;6.06;100.00
13080;BME280;6606;49.154;9.280;2023-01-10T03:39:43;99745.91;;;5.93;100.00
13080;BME280;6606;49.154;9.280;2023-01-10T03:42:35;99752.84;;;5.96;100.00
13080;BME280;6606;49.154;9.280;2023-01-10T03:45:40;99755.63;;;5.90;100.00
13080;BME280;6606;49.154;9.280;2023-01-10T03:48:24;99756.44;;;5.92;100.00
13080;BME280;6606;49.154;9.280;2023-01-10T03:51:08;99767.63;;;6.00;100.00
13080;BME280;6606;49.154;9.280;2023-01-10T03:53:50;99764.28;;;5.95;100.00
13080;BME280;6606;49.154;9.280;2023-01-10T03:56:44;99769.47;;;5.98;100.00
13080;BME280;6606;49.154;9.280;2023-01-10T03:59:27;99785.25;;;5.98;100.00
13080;BME280;6606;49.154;9.280;2023-01-10T04:02:09;99783.75;;;5.88;100.00
13080;BME280;6606;49.154;9.280;2023-01-10T04:04:51;99794.28;;;5.88;100.00
13080;BME280;6606;49.154;9.280;2023-01-10T04:07:33;99799.78;;;5.79;100.00
13080;BME280;6606;49.154;9.280;2023-01-10T04:10:15;99801.53;;;5.80;100.00
13080;BME280;6606;49.154;9.280;2023-01-10T04:12:59;99800.94;;;5.68;100.00
13080;BME280;6606;49.154;9.280;2023-01-10T04:15:41;99790.75;;;5.58;100.00
13080;BME280;6606;49.154;9.280;2023-01-10T04:18:23;99798.50;;;5.62;100.00
13080;BME280;6606;49.154;9.280;2023-01-10T04:21:05;99798.97;;;5.45;100.00
13080;BME280;6606;49.154;9.280;2023-01-10T04:23:47;99810.50;;;5.40;100.00
13080;BME280;6606;49.154;9.280;2023-01-10T04:26:28;99814.00;;;5.40;100.00
13080;BME280;6606;49.154;9.280;2023-01-10T04:29:12;99825.28;;;5.44;100.00
13080;BME280;6606;49.154;9.280;2023-01-10T04:31:53;99835.63;;;5.50;100.00
13080;BME280;6606;49.154;9.280;2023-01-10T04:34:35;99831.38;;;5.46;100.00
13080;BME280;6606;49.154;9.280;2023-01-10T04:37:17;99839.38;;;5.41;100.00
13080;BME280;6606;49.154;9.280;2023-01-10T04:39:59;99851.84;;;5.35;100.00
13080;BME280;6606;49.154;9.280;2023-01-10T04:42:41;99853.25;;;5.48;100.00
13080;BME280;6606;49.154;9.280;2023-01-10T04:45:24;99863.88;;;5.43;100.00
13080;BME280;6606;49.154;9.280;2023-01-10T04:48:05;99874.38;;;5.43;100.00
13080;BME280;6606;49.154;9.280;2023-01-10T04:50:48;99876.28;;;5.37;100.00
13080;BME280;6606;49.154;9.280;2023-01-10T04:53:31;99883.13;;;5.44;100.00
13080;BME280;6606;49.154;9.280;2023-01-10T04:56:15;99899.75;;;5.44;100.00
13080;BME280;6606;49.154;9.280;2023-01-10T04:58:58;99895.97;;;5.55;100.00
13080;BME280;6606;49.154;9.280;2023-01-10T05:01:41;99901.97;;;5.61;100.00
13080;BME280;6606;49.154;9.280;2023-01-10T05:04:23;99901.03;;;5.62;100.00
13080;BME280;6606;49.154;9.280;2023-01-10T05:07:04;99915.16;;;5.58;100.00
13080;BME280;6606;49.154;9.280;2023-01-10T05:09:46;99916.72;;;5.65;100.00
13080;BME280;6606;49.154;9.280;2023-01-10T05:12:28;99925.47;;;5.66;100.00
13080;BME280;6606;49.154;9.280;2023-01-10T05:15:10;99919.44;;;5.64;100.00
13080;BME280;6606;49.154;9.280;2023-01-10T05:17:57;99930.06;;;5.59;100.00
13080;BME280;6606;49.154;9.280;2023-01-10T05:20:39;99939.66;;;5.60;100.00
13080;BME280;6606;49.154;9.280;2023-01-10T05:23:21;99949.13;;;5.67;100.00
13080;BME280;6606;49.154;9.280;2023-01-10T05:26:07;99954.53;;;5.61;100.00
13080;BME280;6606;49.154;9.280;2023-01-10T05:28:49;99964.72;;;5.73;100.00
13080;BME280;6606;49.154;9.280;2023-01-10T05:31:31;99963.84;;;5.75;100.00
13080;BME280;6606;49.154;9.280;2023-01-10T05:34:14;99966.53;;;5.71;100.00
13080;BME280;6606;49.154;9.280;2023-01-10T05:36:56;99966.63;;;5.68;100.00
13080;BME280;6606;49.154;9.280;2023-01-10T05:39:38;99961.44;;;5.65;100.00
13080;BME280;6606;49.154;9.280;2023-01-10T05:42:20;99956.00;;;5.71;100.00
13080;BME280;6606;49.154;9.280;2023-01-10T05:45:02;99962.28;;;5.66;100.00
13080;BME280;6606;49.154;9.280;2023-01-10T05:47:44;99957.97;;;5.63;100.00
13080;BME280;6606;49.154;9.280;2023-01-10T05:50:27;99971.19;;;5.62;100.00
13080;BME280;6606;49.154;9.280;2023-01-10T05:53:13;99975.34;;;5.70;100.00
13080;BME280;6606;49.154;9.280;2023-01-10T05:55:56;99980.59;;;5.70;100.00
13080;BME280;6606;49.154;9.280;2023-01-10T05:58:38;99985.69;;;5.77;100.00
13080;BME280;6606;49.154;9.280;2023-01-10T06:01:20;99988.31;;;5.77;100.00
13080;BME280;6606;49.154;9.280;2023-01-10T06:04:01;99992.81;;;5.71;100.00
13080;BME280;6606;49.154;9.280;2023-01-10T06:06:44;100001.69;;;5.69;100.00
13080;BME280;6606;49.154;9.280;2023-01-10T06:09:26;100008.78;;;5.65;100.00
13080;BME280;6606;49.154;9.280;2023-01-10T06:12:08;100000.78;;;5.70;100.00
13080;BME280;6606;49.154;9.280;2023-01-10T06:14:50;100000.59;;;5.76;100.00
13080;BME280;6606;49.154;9.280;2023-01-10T06:17:31;100004.94;;;5.79;100.00
13080;BME280;6606;49.154;9.280;2023-01-10T06:20:13;100017.03;;;5.86;100.00
13080;BME280;6606;49.154;9.280;2023-01-10T06:22:57;100016.09;;;5.88;100.00
13080;BME280;6606;49.154;9.280;2023-01-10T06:25:41;100015.53;;;5.76;100.00
13080;BME280;6606;49.154;9.280;2023-01-10T06:28:23;100022.50;;;5.77;100.00
13080;BME280;6606;49.154;9.280;2023-01-10T06:31:05;100031.16;;;5.82;100.00
13080;BME280;6606;49.154;9.280;2023-01-10T06:33:49;100027.63;;;5.83;100.00
13080;BME280;6606;49.154;9.280;2023-01-10T06:36:31;100034.63;;;5.84;100.00
13080;BME280;6606;49.154;9.280;2023-01-10T06:39:14;100040.72;;;5.84;100.00
13080;BME280;6606;49.154;9.280;2023-01-10T06:41:56;100049.63;;;5.79;100.00
13080;BME280;6606;49.154;9.280;2023-01-10T06:44:38;100057.34;;;5.86;100.00
13080;BME280;6606;49.154;9.280;2023-01-10T06:47:20;100055.50;;;5.90;100.00
13080;BME280;6606;49.154;9.280;2023-01-10T06:50:02;100063.31;;;5.94;100.00
13080;BME280;6606;49.154;9.280;2023-01-10T06:52:44;100064.38;;;5.86;100.00
13080;BME280;6606;49.154;9.280;2023-01-10T06:55:28;100063.34;;;5.91;100.00
13080;BME280;6606;49.154;9.280;2023-01-10T06:58:10;100072.97;;;5.92;100.00
13080;BME280;6606;49.154;9.280;2023-01-10T07:01:01;100078.38;;;5.88;100.00
13080;BME280;6606;49.154;9.280;2023-01-10T07:03:46;100085.50;;;5.83;100.00
13080;BME280;6606;49.154;9.280;2023-01-10T07:06:29;100090.59;;;5.90;100.00
13080;BME280;6606;49.154;9.280;2023-01-10T07:09:11;100083.75;;;5.82;100.00
13080;BME280;6606;49.154;9.280;2023-01-10T07:11:54;100091.97;;;5.69;100.00
13080;BME280;6606;49.154;9.280;2023-01-10T07:14:36;100097.97;;;5.75;100.00
13080;BME280;6606;49.154;9.280;2023-01-10T07:17:18;100105.88;;;5.73;100.00
13080;BME280;6606;49.154;9.280;2023-01-10T07:19:59;100108.53;;;5.71;100.00
13080;BME280;6606;49.154;9.280;2023-01-10T07:22:41;100115.41;;;5.79;100.00
13080;BME280;6606;49.154;9.280;2023-01-10T07:25:24;100115.19;;;5.88;100.00
13080;BME280;6606;49.154;9.280;2023-01-10T07:28:07;100119.41;;;5.95;100.00
13080;BME280;6606;49.154;9.280;2023-01-10T07:30:49;100125.34;;;6.03;100.00
13080;BME280;6606;49.154;9.280;2023-01-10T07:33:30;100128.22;;;5.94;100.00
13080;BME280;6606;49.154;9.280;2023-01-10T07:36:12;100119.22;;;6.03;100.00
13080;BME280;6606;49.154;9.280;2023-01-10T07:38:54;100117.50;;;6.02;100.00
13080;BME280;6606;49.154;9.280;2023-01-10T07:41:36;100114.91;;;6.00;100.00
13080;BME280;6606;49.154;9.280;2023-01-10T07:44:19;100119.88;;;6.12;100.00
13080;BME280;6606;49.154;9.280;2023-01-10T07:47:01;100127.84;;;6.09;100.00
13080;BME280;6606;49.154;9.280;2023-01-10T07:49:42;100152.41;;;6.10;100.00
13080;BME280;6606;49.154;9.280;2023-01-10T07:52:24;100163.41;;;6.26;100.00
13080;BME280;6606;49.154;9.280;2023-01-10T07:55:07;100169.81;;;6.15;100.00
13080;BME280;6606;49.154;9.280;2023-01-10T07:57:49;100176.09;;;6.08;100.00
13080;BME280;6606;49.154;9.280;2023-01-10T08:00:33;100175.91;;;6.18;100.00
13080;BME280;6606;49.154;9.280;2023-01-10T08:03:16;100173.44;;;6.10;100.00
13080;BME280;6606;49.154;9.280;2023-01-10T08:05:58;100182.88;;;6.19;100.00
13080;BME280;6606;49.154;9.280;2023-01-10T08:08:40;100201.09;;;6.28;100.00
13080;BME280;6606;49.154;9.280;2023-01-10T08:11:22;100197.34;;;6.38;100.00
13080;BME280;6606;49.154;9.280;2023-01-10T08:14:04;100191.50;;;6.25;100.00
13080;BME280;6606;49.154;9.280;2023-01-10T08:16:47;100189.44;;;6.38;100.00
13080;BME280;6606;49.154;9.280;2023-01-10T08:19:28;100195.38;;;6.46;100.00
13080;BME280;6606;49.154;9.280;2023-01-10T08:22:10;100208.56;;;6.46;100.00
13080;BME280;6606;49.154;9.280;2023-01-10T08:24:52;100215.53;;;6.47;100.00
13080;BME280;6606;49.154;9.280;2023-01-10T08:27:34;100222.59;;;6.45;100.00
13080;BME280;6606;49.154;9.280;2023-01-10T08:30:16;100210.94;;;6.55;100.00
13080;BME280;6606;49.154;9.280;2023-01-10T08:33:00;100220.44;;;6.63;100.00
13080;BME280;6606;49.154;9.280;2023-01-10T08:35:42;100222.47;;;6.51;100.00
13080;BME280;6606;49.154;9.280;2023-01-10T08:38:24;100233.00;;;6.51;100.00
13080;BME280;6606;49.154;9.280;2023-01-10T08:41:06;100208.47;;;6.49;100.00
13080;BME280;6606;49.154;9.280;2023-01-10T08:43:48;100212.34;;;6.69;100.00
13080;BME280;6606;49.154;9.280;2023-01-10T08:46:30;100210.31;;;6.80;100.00
13080;BME280;6606;49.154;9.280;2023-01-10T08:49:14;100202.47;;;6.77;100.00
13080;BME280;6606;49.154;9.280;2023-01-10T08:51:55;100203.88;;;6.90;100.00
13080;BME280;6606;49.154;9.280;2023-01-10T08:54:37;100221.19;;;7.00;100.00
13080;BME280;6606;49.154;9.280;2023-01-10T08:57:19;100229.47;;;6.87;100.00
13080;BME280;6606;49.154;9.280;2023-01-10T09:00:01;100242.53;;;6.91;100.00
13080;BME280;6606;49.154;9.280;2023-01-10T09:02:43;100254.94;;;6.86;100.00
13080;BME280;6606;49.154;9.280;2023-01-10T09:05:26;100251.56;;;6.81;100.00
13080;BME280;6606;49.154;9.280;2023-01-10T09:08:08;100253.28;;;6.82;100.00
13080;BME280;6606;49.154;9.280;2023-01-10T09:10:50;100254.78;;;6.92;100.00
13080;BME280;6606;49.154;9.280;2023-01-10T09:13:32;100259.66;;;7.08;100.00
13080;BME280;6606;49.154;9.280;2023-01-10T09:16:14;100264.84;;;7.11;100.00
13080;BME280;6606;49.154;9.280;2023-01-10T09:18:56;100259.41;;;7.17;100.00
13080;BME280;6606;49.154;9.280;2023-01-10T09:21:39;100263.38;;;7.33;100.00
13080;BME280;6606;49.154;9.280;2023-01-10T09:24:21;100268.13;;;7.19;100.00
13080;BME280;6606;49.154;9.280;2023-01-10T09:27:06;100265.56;;;7.48;100.00
13080;BME280;6606;49.154;9.280;2023-01-10T09:29:47;100276.47;;;7.36;100.00
13080;BME280;6606;49.154;9.280;2023-01-10T09:32:29;100272.03;;;7.38;100.00
13080;BME280;6606;49.154;9.280;2023-01-10T09:35:11;100265.66;;;7.45;100.00
13080;BME280;6606;49.154;9.280;2023-01-10T09:37:54;100287.63;;;7.46;100.00
13080;BME280;6606;49.154;9.280;2023-01-10T09:43:59;100302.31;;;7.23;100.00
13080;BME280;6606;49.154;9.280;2023-01-10T09:46:50;100301.81;;;7.42;100.00
13080;BME280;6606;49.154;9.280;2023-01-10T09:49:44;100302.44;;;7.52;100.00
13080;BME280;6606;49.154;9.280;2023-01-10T09:52:30;100308.41;;;7.57;100.00
13080;BME280;6606;49.154;9.280;2023-01-10T09:55:22;100317.47;;;7.48;100.00
13080;BME280;6606;49.154;9.280;2023-01-10T09:58:09;100326.44;;;7.41;100.00
13080;BME280;6606;49.154;9.280;2023-01-10T10:00:55;100344.78;;;7.45;100.00
13080;BME280;6606;49.154;9.280;2023-01-10T10:03:42;100339.22;;;7.22;100.00
13080;BME280;6606;49.154;9.280;2023-01-10T10:06:26;100340.31;;;7.15;100.00
13080;BME280;6606;49.154;9.280;2023-01-10T10:09:09;100346.34;;;7.20;100.00
13080;BME280;6606;49.154;9.280;2023-01-10T10:12:08;100339.75;;;7.36;100.00
13080;BME280;6606;49.154;9.280;2023-01-10T10:15:04;100331.56;;;7.47;100.00
13080;BME280;6606;49.154;9.280;2023-01-10T10:17:56;100326.44;;;7.74;100.00
13080;BME280;6606;49.154;9.280;2023-01-10T10:20:50;100325.44;;;7.46;100.00
13080;BME280;6606;49.154;9.280;2023-01-10T10:23:59;100333.81;;;7.61;100.00
13080;BME280;6606;49.154;9.280;2023-01-10T10:26:51;100331.16;;;7.62;100.00
13080;BME280;6606;49.154;9.280;2023-01-10T10:30:01;100338.91;;;7.67;100.00
13080;BME280;6606;49.154;9.280;2023-01-10T10:32:56;100337.81;;;7.43;100.00
13080;BME280;6606;49.154;9.280;2023-01-10T10:35:42;100341.31;;;7.43;100.00
13080;BME280;6606;49.154;9.280;2023-01-10T10:38:28;100341.00;;;7.56;100.00
13080;BME280;6606;49.154;9.280;2023-01-10T10:41:17;100341.06;;;7.53;100.00
13080;BME280;6606;49.154;9.280;2023-01-10T10:44:17;100341.88;;;7.22;100.00
13080;BME280;6606;49.154;9.280;2023-01-10T10:47:12;100337.06;;;7.03;100.00
13080;BME280;6606;49.154;9.280;2023-01-10T10:49:59;100328.84;;;7.17;100.00
13080;BME280;6606;49.154;9.280;2023-01-10T10:52:45;100327.72;;;7.26;100.00
13080;BME280;6606;49.154;9.280;2023-01-10T10:55:29;100332.59;;;7.41;100.00
13080;BME280;6606;49.154;9.280;2023-01-10T10:58:12;100320.34;;;7.39;100.00
13080;BME280;6606;49.154;9.280;2023-01-10T11:00:55;100327.50;;;7.66;100.00
13080;BME280;6606;49.154;9.280;2023-01-10T11:03:41;100324.75;;;7.71;100.00
13080;BME280;6606;49.154;9.280;2023-01-10T11:06:26;100322.03;;;7.72;100.00
13080;BME280;6606;49.154;9.280;2023-01-10T11:09:19;100323.28;;;7.92;100.00
13080;BME280;6606;49.154;9.280;2023-01-10T11:12:09;100327.59;;;7.95;100.00
13080;BME280;6606;49.154;9.280;2023-01-10T11:14:57;100329.31;;;7.96;100.00
13080;BME280;6606;49.154;9.280;2023-01-10T11:17:39;100323.03;;;7.70;100.00
13080;BME280;6606;49.154;9.280;2023-01-10T11:20:22;100330.13;;;7.68;100.00
13080;BME280;6606;49.154;9.280;2023-01-10T11:23:04;100322.44;;;7.59;100.00
13080;BME280;6606;49.154;9.280;2023-01-10T11:25:46;100338.84;;;7.70;100.00
13080;BME280;6606;49.154;9.280;2023-01-10T11:28:30;100327.41;;;8.01;100.00
13080;BME280;6606;49.154;9.280;2023-01-10T11:31:12;100329.22;;;7.99;100.00
13080;BME280;6606;49.154;9.280;2023-01-10T11:33:55;100321.28;;;8.00;100.00
13080;BME280;6606;49.154;9.280;2023-01-10T11:36:53;100321.16;;;8.05;100.00
13080;BME280;6606;49.154;9.280;2023-01-10T11:39:34;100335.88;;;8.12;100.00
13080;BME280;6606;49.154;9.280;2023-01-10T11:42:26;100341.44;;;8.32;100.00
13080;BME280;6606;49.154;9.280;2023-01-10T11:45:27;100336.97;;;8.34;100.00
13080;BME280;6606;49.154;9.280;2023-01-10T11:48:19;100328.22;;;8.62;100.00
13080;BME280;6606;49.154;9.280;2023-01-10T11:51:02;100340.47;;;8.93;100.00
13080;BME280;6606;49.154;9.280;2023-01-10T11:53:45;100339.34;;;8.73;100.00
13080;BME280;6606;49.154;9.280;2023-01-10T11:56:32;100337.81;;;9.19;100.00
13080;BME280;6606;49.154;9.280;2023-01-10T11:59:16;100339.75;;;9.14;100.00
13080;BME280;6606;49.154;9.280;2023-01-10T12:02:01;100333.00;;;9.31;100.00
13080;BME280;6606;49.154;9.280;2023-01-10T12:04:44;100340.78;;;9.35;100.00
13080;BME280;6606;49.154;9.280;2023-01-10T12:07:27;100343.19;;;9.91;100.00
13080;BME280;6606;49.154;9.280;2023-01-10T12:10:19;100330.72;;;9.95;100.00
13080;BME280;6606;49.154;9.280;2023-01-10T12:13:12;100341.22;;;9.48;100.00
13080;BME280;6606;49.154;9.280;2023-01-10T12:16:32;100331.31;;;9.03;100.00
13080;BME280;6606;49.154;9.280;2023-01-10T12:19:53;100312.81;;;9.03;100.00
13080;BME280;6606;49.154;9.280;2023-01-10T12:22:39;100305.75;;;9.02;100.00
13080;BME280;6606;49.154;9.280;2023-01-10T12:25:26;100310.56;;;8.91;100.00
13080;BME280;6606;49.154;9.280;2023-01-10T12:28:16;100307.13;;;8.61;100.00
13080;BME280;6606;49.154;9.280;2023-01-10T12:30:59;100312.25;;;8.65;100.00
13080;BME280;6606;49.154;9.280;2023-01-10T12:33:43;100310.75;;;8.85;100.00
13080;BME280;6606;49.154;9.280;2023-01-10T12:36:35;100312.03;;;8.99;100.00
13080;BME280;6606;49.154;9.280;2023-01-10T12:39:21;100299.72;;;8.72;100.00
13080;BME280;6606;49.154;9.280;2023-01-10T12:42:15;100308.06;;;8.30;100.00
13080;BME280;6606;49.154;9.280;2023-01-10T12:45:21;100305.66;;;8.22;100.00
13080;BME280;6606;49.154;9.280;2023-01-10T12:48:12;100297.22;;;8.09;100.00
13080;BME280;6606;49.154;9.280;2023-01-10T12:50:59;100291.63;;;8.20;100.00
13080;BME280;6606;49.154;9.280;2023-01-10T12:53:43;100286.91;;;8.31;100.00
13080;BME280;6606;49.154;9.280;2023-01-10T12:56:28;100293.47;;;8.18;100.00
13080;BME280;6606;49.154;9.280;2023-01-10T12:59:17;100292.09;;;8.05;100.00
13080;BME280;6606;49.154;9.280;2023-01-10T13:02:00;100296.81;;;8.53;100.00
13080;BME280;6606;49.154;9.280;2023-01-10T13:04:44;100291.19;;;8.64;100.00
13080;BME280;6606;49.154;9.280;2023-01-10T13:07:33;100282.91;;;8.46;100.00
13080;BME280;6606;49.154;9.280;2023-01-10T13:10:18;100276.63;;;8.50;100.00
13080;BME280;6606;49.154;9.280;2023-01-10T13:13:05;100275.19;;;8.38;100.00
13080;BME280;6606;49.154;9.280;2023-01-10T13:15:56;100280.47;;;8.38;100.00
13080;BME280;6606;49.154;9.280;2023-01-10T13:19:01;100271.31;;;8.22;100.00
13080;BME280;6606;49.154;9.280;2023-01-10T13:21:43;100264.63;;;8.40;100.00
13080;BME280;6606;49.154;9.280;2023-01-10T13:24:25;100268.91;;;8.44;100.00
13080;BME280;6606;49.154;9.280;2023-01-10T13:27:17;100271.28;;;8.52;100.00
13080;BME280;6606;49.154;9.280;2023-01-10T13:30:01;100269.56;;;8.51;100.00
13080;BME280;6606;49.154;9.280;2023-01-10T13:32:57;100273.28;;;8.72;100.00
13080;BME280;6606;49.154;9.280;2023-01-10T13:35:41;100285.41;;;8.79;100.00
13080;BME280;6606;49.154;9.280;2023-01-10T13:38:28;100284.31;;;8.58;100.00
13080;BME280;6606;49.154;9.280;2023-01-10T13:41:14;100277.66;;;8.73;100.00
13080;BME280;6606;49.154;9.280;2023-01-10T13:44:11;100265.84;;;8.85;100.00
13080;BME280;6606;49.154;9.280;2023-01-10T13:46:53;100269.28;;;8.87;100.00
13080;BME280;6606;49.154;9.280;2023-01-10T13:49:42;100268.97;;;8.69;100.00
13080;BME280;6606;49.154;9.280;2023-01-10T13:52:30;100264.78;;;8.89;100.00
13080;BME280;6606;49.154;9.280;2023-01-10T13:55:30;100266.91;;;8.52;100.00
13080;BME280;6606;49.154;9.280;2023-01-10T13:58:39;100278.19;;;8.57;100.00
13080;BME280;6606;49.154;9.280;2023-01-10T14:01:39;100277.75;;;8.43;100.00
13080;BME280;6606;49.154;9.280;2023-01-10T14:04:45;100277.34;;;8.55;100.00
13080;BME280;6606;49.154;9.280;2023-01-10T14:07:30;100279.75;;;8.63;100.00
13080;BME280;6606;49.154;9.280;2023-01-10T14:10:20;100287.44;;;8.71;100.00
13080;BME280;6606;49.154;9.280;2023-01-10T14:13:04;100284.84;;;8.69;100.00
13080;BME280;6606;49.154;9.280;2023-01-10T14:15:49;100283.97;;;8.41;100.00
13080;BME280;6606;49.154;9.280;2023-01-10T14:22:38;100279.50;;;8.71;100.00
13080;BME280;6606;49.154;9.280;2023-01-10T14:25:21;100284.44;;;8.55;100.00
13080;BME280;6606;49.154;9.280;2023-01-10T14:28:04;100286.19;;;8.54;100.00
13080;BME280;6606;49.154;9.280;2023-01-10T14:31:04;100278.22;;;8.56;100.00
13080;BME280;6606;49.154;9.280;2023-01-10T14:33:48;100283.00;;;8.71;100.00
13080;BME280;6606;49.154;9.280;2023-01-10T14:36:32;100280.66;;;8.62;100.00
13080;BME280;6606;49.154;9.280;2023-01-10T14:39:21;100280.75;;;8.59;100.00
13080;BME280;6606;49.154;9.280;2023-01-10T14:42:06;100273.69;;;8.59;100.00
13080;BME280;6606;49.154;9.280;2023-01-10T14:44:53;100265.22;;;8.20;100.00
13080;BME280;6606;49.154;9.280;2023-01-10T14:47:38;100262.50;;;8.23;100.00
13080;BME280;6606;49.154;9.280;2023-01-10T14:50:25;100266.25;;;8.16;100.00
13080;BME280;6606;49.154;9.280;2023-01-10T14:53:24;100261.78;;;8.18;100.00
13080;BME280;6606;49.154;9.280;2023-01-10T14:56:18;100264.31;;;8.21;100.00